Time;durP1;ratioP1;P1;durP2;ratioP2;P2;SDS_P1;SDS_P2;PMS_P1;PMS_P2;Temp;Humidity;BMP_temperature;BMP_pressure;BME280_temperature;BME280_humidity;BME280_pressure;Samples;Min_cycle;Max_cycle;Signal;HPM_P1;HPM_P2
2022/12/25 00:00:48;;;;;;;5.80;1.80;;;10.20;99.90;;;10.13;100.00;100981.28;5188097;28;20136;-70
2022/12/25 00:03:20;;;;;;;5.18;2.42;;;10.20;99.90;;;10.14;100.00;100970.03;5205295;28;20041;-69
2022/12/25 00:05:52;;;;;;;5.72;1.92;;;10.20;99.90;;;10.17;100.00;100975.34;5187469;28;20049;-68
2022/12/25 00:08:25;;;;;;;3.67;1.90;;;10.30;99.90;;;10.18;100.00;100971.94;5186835;28;20056;-71
2022/12/25 00:10:59;;;;;;;4.53;2.10;;;10.30;99.90;;;10.19;100.00;100971.09;5205154;28;20085;-70
2022/12/25 00:13:31;;;;;;;6.53;1.70;;;10.30;99.90;;;10.20;100.00;100978.09;5173712;28;20434;-71
2022/12/25 00:16:07;;;;;;;5.63;1.58;;;10.30;99.90;;;10.20;100.00;100983.28;5190991;28;20041;-71
2022/12/25 00:18:39;;;;;;;4.15;1.42;;;10.30;99.90;;;10.21;100.00;100969.44;5186750;28;20387;-72
2022/12/25 00:21:12;;;;;;;5.28;1.80;;;10.30;99.90;;;10.23;100.00;100983.44;5204884;28;20042;-70
2022/12/25 00:23:46;;;;;;;3.53;1.38;;;10.30;99.90;;;10.23;100.00;100983.44;5154682;28;20423;-71
2022/12/25 00:26:18;;;;;;;9.25;2.40;;;10.30;99.90;;;10.22;100.00;100973.81;5204667;28;20045;-70
2022/12/25 00:28:53;;;;;;;3.53;1.50;;;10.30;99.90;;;10.24;100.00;100969.59;5204252;28;20505;-69
2022/12/25 00:31:25;;;;;;;2.75;1.42;;;10.30;99.90;;;10.23;100.00;100968.69;5186885;28;20520;-70
2022/12/25 00:33:58;;;;;;;3.20;1.50;;;10.30;99.90;;;10.24;100.00;100960.06;5204980;28;20433;-70
2022/12/25 00:36:30;;;;;;;4.53;1.60;;;10.30;99.90;;;10.27;100.00;100969.72;5204789;28;20044;-69
2022/12/25 00:39:05;;;;;;;4.38;1.60;;;10.30;99.90;;;10.26;100.00;100970.53;5203867;28;20049;-71
2022/12/25 00:44:38;;;;;;;;;;;10.30;99.90;;;10.25;100.00;100966.16;5161681;28;20042;-69
2022/12/25 00:47:10;;;;;;;8.48;2.05;;;10.40;99.90;;;10.26;100.00;100967.94;5194948;28;19951;-69
2022/12/25 00:49:43;;;;;;;4.53;1.83;;;10.30;99.90;;;10.24;100.00;100978.31;5186163;28;20053;-70
2022/12/25 00:52:15;;;;;;;3.58;1.50;;;10.30;99.90;;;10.24;100.00;100980.03;5186557;28;20099;-70
2022/12/25 00:54:48;;;;;;;6.00;1.92;;;10.30;99.90;;;10.22;100.00;100982.50;5188973;28;20498;-69
2022/12/25 00:57:20;;;;;;;4.72;1.63;;;10.30;99.90;;;10.21;100.00;100980.75;5181782;28;20081;-69
2022/12/25 00:59:53;;;;;;;6.75;2.20;;;10.30;99.90;;;10.19;100.00;100977.19;5183871;28;20056;-69
2022/12/25 01:02:25;;;;;;;6.22;1.92;;;10.30;99.90;;;10.21;100.00;100977.25;5183491;28;20555;-71
2022/12/25 01:04:58;;;;;;;5.20;1.80;;;10.30;99.90;;;10.19;100.00;100977.19;5184024;28;20045;-69
2022/12/25 01:07:30;;;;;;;5.55;2.28;;;10.30;99.90;;;10.19;100.00;100986.72;5183575;28;20045;-71
2022/12/25 01:10:21;;;;;;;5.95;1.88;;;10.30;99.90;;;10.19;100.00;100976.31;5184291;28;20064;-71
2022/12/25 01:12:53;;;;;;;8.95;2.38;;;10.30;99.90;;;10.16;100.00;100981.38;5183841;28;20042;-69
2022/12/25 01:15:26;;;;;;;6.05;2.78;;;10.30;99.90;;;10.13;100.00;100976.06;5182627;28;20050;-69
2022/12/25 01:17:58;;;;;;;5.25;2.00;;;10.20;99.90;;;10.12;100.00;100975.19;5212905;28;20047;-69
2022/12/25 01:20:31;;;;;;;2.80;1.38;;;10.20;99.90;;;10.11;100.00;100975.13;5224418;28;20047;-68
2022/12/25 01:23:03;;;;;;;8.50;2.00;;;10.20;99.90;;;10.06;100.00;100986.25;5224369;28;20079;-71
2022/12/25 01:25:36;;;;;;;6.22;1.80;;;10.20;99.90;;;10.10;100.00;100982.03;5206599;28;20055;-69
2022/12/25 01:28:09;;;;;;;7.97;1.77;;;10.20;99.90;;;10.10;100.00;100983.75;5206117;28;20045;-70
2022/12/25 01:30:48;;;;;;;3.92;1.88;;;10.20;99.90;;;10.12;100.00;100987.31;5224859;28;20157;-71
2022/12/25 01:33:20;;;;;;;3.30;1.20;;;10.20;99.90;;;10.14;100.00;100978.72;5224238;28;20045;-70
2022/12/25 01:35:52;;;;;;;2.70;1.05;;;10.20;99.90;;;10.17;100.00;100977.94;5224639;28;20047;-71
2022/12/25 01:38:25;;;;;;;1.55;1.10;;;10.20;99.90;;;10.19;100.00;100971.09;5223859;28;20044;-70
2022/12/25 01:40:58;;;;;;;2.72;1.38;;;10.30;99.90;;;10.22;100.00;100986.84;5224474;28;20041;-69
2022/12/25 01:43:33;;;;;;;3.17;1.42;;;10.30;99.90;;;10.23;100.00;100980.81;5224418;28;20063;-69
2022/12/25 01:46:06;;;;;;;4.32;1.50;;;10.30;99.90;;;10.20;100.00;100975.47;5224005;28;20081;-69
2022/12/25 01:48:41;;;;;;;6.85;1.52;;;10.30;99.90;;;10.18;100.00;100969.34;5223818;28;20051;-68
2022/12/25 01:51:25;;;;;;;4.32;1.30;;;10.30;99.90;;;10.20;100.00;100984.19;5206326;28;20497;-69
2022/12/25 01:54:04;;;;;;;2.70;1.20;;;10.30;99.90;;;10.20;100.00;100981.56;5224221;28;20124;-70
2022/12/25 01:56:40;;;;;;;2.78;1.15;;;10.30;99.90;;;10.21;100.00;100980.75;5224210;28;20563;-70
2022/12/25 01:59:14;;;;;;;3.15;1.35;;;10.30;99.90;;;10.24;100.00;100985.22;5223749;28;20500;-71
2022/12/25 02:01:47;;;;;;;3.53;1.48;;;10.30;99.90;;;10.24;100.00;100985.22;5224101;28;20049;-69
2022/12/25 02:04:37;;;;;;;2.53;1.20;;;10.30;99.90;;;10.27;100.00;100987.94;5224519;28;20041;-70
2022/12/25 02:07:14;;;;;;;3.50;1.10;;;10.30;99.90;;;10.27;100.00;100988.84;5224358;28;20049;-70
2022/12/25 02:09:47;;;;;;;3.20;1.33;;;10.30;99.90;;;10.29;100.00;100986.28;5224064;28;20056;-69
2022/12/25 02:12:23;;;;;;;3.00;1.40;;;10.30;99.90;;;10.29;100.00;100986.28;5224621;28;20041;-70
2022/12/25 02:15:00;;;;;;;2.60;1.15;;;10.30;99.90;;;10.28;100.00;100982.78;5227284;28;20044;-71
2022/12/25 02:17:41;;;;;;;2.10;1.00;;;10.30;99.90;;;10.30;100.00;100990.66;5227365;28;20053;-70
2022/12/25 02:20:48;;;;;;;3.10;0.93;;;10.30;99.90;;;10.28;100.00;100982.78;5209657;28;20136;-70
2022/12/25 02:23:49;;;;;;;3.42;1.20;;;10.30;99.90;;;10.29;100.00;100988.88;5228134;28;20409;-69
2022/12/25 02:26:48;;;;;;;2.45;1.00;;;10.30;99.90;;;10.28;100.00;100984.50;5227964;28;20379;-70
2022/12/25 02:29:30;;;;;;;2.10;1.10;;;10.40;99.90;;;10.31;100.00;100987.25;5227159;28;20036;-70
2022/12/25 02:32:11;;;;;;;4.13;1.17;;;10.30;99.90;;;10.31;100.00;100987.25;5227698;28;20033;-69
2022/12/25 02:34:50;;;;;;;5.35;1.27;;;10.40;99.90;;;10.30;100.00;100990.66;5227585;28;20053;-69
2022/12/25 02:37:31;;;;;;;4.00;2.00;;;10.40;99.90;;;10.28;100.00;100990.59;5227520;28;20040;-70
2022/12/25 02:40:12;;;;;;;6.05;1.52;;;10.40;99.90;;;10.27;100.00;100990.56;5226915;28;20057;-70
2022/12/25 03:06:45;;;;;;;4.78;1.48;;;10.40;99.90;;;10.27;100.00;100988.84;5202087;28;20053;-70
2022/12/25 03:12:18;;;;;;;8.23;2.10;;;10.40;99.90;;;10.28;100.00;100987.13;5227059;28;20041;-70
2022/12/25 03:17:42;;;;;;;4.70;1.70;;;10.40;99.90;;;10.31;100.00;100982.03;5226184;28;20052;-69
2022/12/25 03:28:43;;;;;;;5.80;1.63;;;10.40;99.90;;;10.30;100.00;100972.41;5226260;28;20091;-69
2022/12/25 03:31:19;;;;;;;4.20;1.58;;;10.40;99.90;;;10.30;100.00;100965.53;5226555;28;20062;-69
2022/12/25 04:37:52;;;;;;;6.32;1.60;;;10.40;99.90;;;10.34;100.00;100943.06;5223932;28;20052;-68
2022/12/25 04:40:26;;;;;;;4.22;1.83;;;10.40;99.90;;;10.32;100.00;100942.13;5207294;28;20094;-68
2022/12/25 04:42:58;;;;;;;3.83;1.45;;;10.40;99.90;;;10.32;100.00;100944.72;5225513;28;20045;-68
2022/12/25 04:45:30;;;;;;;3.67;1.15;;;10.40;99.90;;;10.34;100.00;100956.09;5225254;28;20559;-70
2022/12/25 04:48:02;;;;;;;4.50;1.40;;;10.40;99.90;;;10.35;100.00;100952.63;5206383;28;20049;-70
2022/12/25 04:50:34;;;;;;;2.13;1.25;;;10.40;99.90;;;10.36;100.00;100951.81;5207206;28;20041;-69
2022/12/25 04:53:06;;;;;;;2.15;1.23;;;10.50;99.90;;;10.38;100.00;100939.75;5225491;28;20116;-70
2022/12/25 04:55:40;;;;;;;5.68;1.63;;;10.40;99.90;;;10.39;100.00;100944.13;5225020;28;20059;-69
2022/12/25 04:58:14;;;;;;;4.00;1.63;;;10.50;99.90;;;10.37;100.00;100945.78;5224365;28;20040;-69
2022/12/25 05:00:46;;;;;;;6.18;1.90;;;10.50;99.90;;;10.35;100.00;100929.19;5224738;28;20409;-69
2022/12/25 05:03:18;;;;;;;5.22;1.40;;;10.40;99.90;;;10.32;100.00;100923.88;5224943;28;20040;-69
2022/12/25 05:05:50;;;;;;;6.78;1.52;;;10.40;99.90;;;10.29;100.00;100926.34;5225195;28;20081;-69
2022/12/25 05:08:23;;;;;;;4.38;1.55;;;10.40;99.90;;;10.29;100.00;100927.22;5224323;28;20073;-71
2022/12/25 05:10:57;;;;;;;7.00;1.83;;;10.40;99.90;;;10.30;100.00;100939.47;5225396;28;20037;-70
2022/12/25 05:13:30;;;;;;;9.77;1.67;;;10.40;99.90;;;10.30;100.00;100933.34;5224775;28;20119;-70
2022/12/25 05:16:07;;;;;;;5.63;1.80;;;10.40;99.90;;;10.32;100.00;100929.09;5222792;23;20540;-71
2022/12/25 05:18:39;;;;;;;6.03;1.88;;;10.40;99.90;;;10.32;100.00;100903.03;5190219;28;20120;-71
2022/12/25 05:21:12;;;;;;;5.22;1.70;;;10.40;99.90;;;10.32;100.00;100903.03;5183777;28;20406;-71
2022/12/25 05:23:48;;;;;;;4.38;1.60;;;10.40;99.90;;;10.32;100.00;100905.63;5184619;28;20072;-71
2022/12/25 05:26:24;;;;;;;3.05;1.17;;;10.40;99.90;;;10.32;100.00;100900.44;5184348;28;20042;-70
2022/12/25 05:28:56;;;;;;;4.28;1.60;;;10.40;99.90;;;10.32;100.00;100890.00;5183894;28;20041;-71
2022/12/25 05:31:29;;;;;;;6.32;1.60;;;10.40;99.90;;;10.32;100.00;100897.81;5183562;28;20406;-70
2022/12/25 05:34:01;;;;;;;3.97;1.63;;;10.40;99.90;;;10.31;100.00;100893.44;5183723;28;20050;-71
2022/12/25 05:36:34;;;;;;;5.93;1.83;;;10.40;99.90;;;10.30;100.00;100889.03;5182200;28;20057;-71
2022/12/25 05:39:06;;;;;;;8.25;1.23;;;10.40;99.90;;;10.32;100.00;100890.00;5183614;28;20048;-71
2022/12/25 05:41:41;;;;;;;5.57;1.45;;;10.40;99.90;;;10.32;100.00;100884.78;5183841;28;20054;-71
2022/12/25 05:44:13;;;;;;;6.13;1.40;;;10.40;99.90;;;10.35;100.00;100884.00;5183439;28;20415;-70
2022/12/25 05:46:45;;;;;;;3.20;1.33;;;10.40;99.90;;;10.36;100.00;100897.09;5183462;28;20232;-70
2022/12/25 05:49:19;;;;;;;2.70;1.15;;;10.50;99.90;;;10.37;100.00;100883.25;5185378;28;20125;-71
2022/12/25 05:51:51;;;;;;;3.78;1.60;;;10.50;99.90;;;10.34;100.00;100872.69;5187641;28;20046;-71
2022/12/25 05:54:23;;;;;;;4.60;1.40;;;10.40;99.90;;;10.35;100.00;100868.38;5187488;28;20050;-70
2022/12/25 05:56:56;;;;;;;4.47;1.70;;;10.40;99.90;;;10.34;100.00;100872.69;5187214;28;20042;-71
2022/12/25 05:59:30;;;;;;;5.53;1.58;;;10.50;99.90;;;10.35;100.00;100877.06;5185828;28;20058;-71
2022/12/25 06:02:02;;;;;;;6.72;2.10;;;10.50;99.90;;;10.34;100.00;100870.09;5186994;28;20433;-70
2022/12/25 06:04:34;;;;;;;3.75;1.50;;;10.40;99.90;;;10.32;100.00;100863.94;5187840;28;20119;-72
2022/12/25 06:07:06;;;;;;;7.70;1.45;;;10.40;99.90;;;10.32;100.00;100858.75;5187421;28;20042;-70
2022/12/25 06:09:38;;;;;;;5.63;1.67;;;10.40;99.90;;;10.31;100.00;100872.59;5187613;28;20401;-70
2022/12/25 06:12:18;;;;;;;5.47;1.60;;;10.40;99.90;;;10.27;100.00;100861.16;5169590;28;20046;-73
2022/12/25 06:14:50;;;;;;;4.68;1.50;;;10.40;99.90;;;10.27;100.00;100863.78;5187038;28;20049;-71
2022/12/25 06:17:25;;;;;;;6.25;1.70;;;10.40;99.90;;;10.27;100.00;100861.16;5186998;28;20121;-71
2022/12/25 06:19:57;;;;;;;3.72;1.33;;;10.40;99.90;;;10.26;100.00;100863.72;5187228;28;20117;-71
2022/12/25 06:22:29;;;;;;;6.35;1.60;;;10.40;99.90;;;10.26;100.00;100861.13;5186951;28;20054;-72
2022/12/25 06:25:02;;;;;;;6.05;1.77;;;10.40;99.90;;;10.25;100.00;100868.03;5186896;28;20053;-71
2022/12/25 06:27:36;;;;;;;7.07;1.92;;;10.40;99.90;;;10.24;100.00;100861.06;5169195;28;20042;-72
2022/12/25 06:30:09;;;;;;;5.22;1.55;;;10.40;99.90;;;10.27;100.00;100849.84;5186680;28;20121;-71
2022/12/25 06:32:41;;;;;;;5.25;1.73;;;10.40;99.90;;;10.28;100.00;100849.03;5186775;28;20046;-71
2022/12/25 06:35:14;;;;;;;4.57;1.30;;;10.40;99.90;;;10.29;100.00;100848.19;5186793;28;20133;-72
2022/12/25 06:37:46;;;;;;;5.78;1.52;;;10.40;99.90;;;10.29;100.00;100842.97;5186569;28;20117;-70
2022/12/25 06:40:18;;;;;;;3.05;1.70;;;10.40;99.90;;;10.28;100.00;100830.78;5186778;28;20050;-71
2022/12/25 06:42:53;;;;;;;6.28;1.85;;;10.40;99.90;;;10.26;100.00;100827.25;5186339;28;20038;-71
2022/12/25 06:45:25;;;;;;;8.45;2.15;;;10.40;99.90;;;10.27;100.00;100823.81;5168557;28;20096;-71
2022/12/25 06:47:58;;;;;;;7.47;1.52;;;10.40;99.90;;;10.25;100.00;100812.44;5168629;28;20149;-71
2022/12/25 06:50:30;;;;;;;7.28;2.20;;;10.40;99.90;;;10.22;100.00;100805.34;5186504;28;20410;-71
2022/12/25 06:53:02;;;;;;;7.13;2.30;;;10.40;99.90;;;10.23;100.00;100796.75;5184984;28;20083;-71
2022/12/25 06:55:35;;;;;;;7.20;2.00;;;10.40;99.90;;;10.23;100.00;100804.56;5184964;28;20060;-72
2022/12/25 06:58:09;;;;;;;4.82;2.28;;;10.40;99.90;;;10.24;100.00;100795.06;5185154;28;20060;-71
2022/12/25 07:00:41;;;;;;;7.75;2.17;;;10.40;99.90;;;10.25;100.00;100789.88;5183844;28;20081;-70
2022/12/25 07:03:19;;;;;;;8.05;1.98;;;10.40;99.90;;;10.27;100.00;100805.56;5185834;28;20136;-71
2022/12/25 07:05:51;;;;;;;4.38;1.98;;;10.40;99.90;;;10.30;100.00;100792.63;5185233;28;20144;-59
2022/12/25 07:08:23;;;;;;;7.45;2.00;;;10.40;99.90;;;10.30;100.00;100797.84;5185140;28;20053;-58
2022/12/25 07:10:55;;;;;;;8.30;2.22;;;10.40;99.90;;;10.29;100.00;100775.22;5185114;28;20116;-60
2022/12/25 07:13:29;;;;;;;6.53;2.15;;;10.40;99.90;;;10.30;100.00;100751.88;5185507;28;20042;-59
2022/12/25 07:16:06;;;;;;;14.55;2.88;;;10.40;99.90;;;10.27;100.00;100766.50;5185268;28;20116;-60
2022/12/25 07:18:39;;;;;;;6.53;2.20;;;10.40;99.90;;;10.28;100.00;100748.28;5184907;28;20108;-58
2022/12/25 07:21:13;;;;;;;5.72;2.30;;;10.40;99.90;;;10.29;100.00;100747.47;5184969;28;20053;-58
2022/12/25 07:23:49;;;;;;;8.30;2.55;;;10.40;99.90;;;10.28;100.00;100739.59;5184963;28;20041;-58
2022/12/25 07:26:21;;;;;;;6.13;2.80;;;10.40;99.90;;;10.29;100.00;100764.81;5185204;28;20046;-59
2022/12/25 07:28:55;;;;;;;7.53;2.72;;;10.40;99.90;;;10.28;100.00;100763.03;5184493;28;20056;-59
2022/12/25 07:31:27;;;;;;;9.52;3.78;;;10.40;99.90;;;10.27;100.00;100761.28;5185273;28;20050;-58
2022/12/25 07:33:59;;;;;;;8.95;3.50;;;10.40;99.90;;;10.28;100.00;100763.03;5184681;28;20050;-59
2022/12/25 07:36:31;;;;;;;10.18;3.03;;;10.40;99.90;;;10.27;100.00;100754.34;5184667;28;20046;-59
2022/12/25 07:39:04;;;;;;;12.32;4.72;;;10.40;99.90;;;10.31;100.00;100768.38;5182776;28;20046;-57
2022/12/25 07:41:36;;;;;;;9.77;2.92;;;10.40;99.90;;;10.30;100.00;100761.38;5184967;28;20065;-61
2022/12/25 07:44:20;;;;;;;11.75;4.05;;;10.40;99.90;;;10.31;100.00;100757.97;5184398;28;20052;-60
2022/12/25 07:46:52;;;;;;;8.52;3.58;;;10.40;99.90;;;10.31;100.00;100757.97;5184671;28;20046;-59
2022/12/25 07:49:24;;;;;;;8.43;3.38;;;10.40;99.90;;;10.32;100.00;100764.94;5184142;28;20042;-57
2022/12/25 07:51:57;;;;;;;7.32;3.45;;;10.40;99.90;;;10.32;100.00;100777.97;5184567;28;20060;-58
2022/12/25 07:54:29;;;;;;;8.43;3.05;;;10.40;99.90;;;10.35;100.00;100775.44;5184477;28;20509;-58
2022/12/25 07:57:01;;;;;;;8.10;3.67;;;10.50;99.90;;;10.35;100.00;100770.25;5184066;28;20049;-58
2022/12/25 07:59:34;;;;;;;8.35;3.47;;;10.50;99.90;;;10.37;100.00;100772.91;5183798;28;20057;-58
2022/12/25 08:02:07;;;;;;;8.48;3.33;;;10.50;99.90;;;10.37;100.00;100772.91;5184309;28;20054;-58
2022/12/25 08:04:39;;;;;;;7.28;3.50;;;10.50;99.90;;;10.40;100.00;100771.28;5184740;28;20482;-60
2022/12/25 08:07:11;;;;;;;8.60;5.05;;;10.50;99.90;;;10.37;100.00;100758.19;5184022;28;20034;-58
2022/12/25 08:09:43;;;;;;;7.63;5.38;;;10.50;99.90;;;10.40;100.00;100763.47;5184090;28;20545;-58
2022/12/25 08:12:15;;;;;;;8.82;3.50;;;10.50;99.90;;;10.38;100.00;100751.25;5184130;28;20050;-57
2022/12/25 08:14:49;;;;;;;6.53;3.15;;;10.50;99.90;;;10.36;100.00;100745.94;5183948;28;20041;-56
2022/12/25 08:17:21;;;;;;;6.57;2.42;;;10.50;99.90;;;10.33;100.00;100740.66;5183542;28;20050;-58
2022/12/25 08:19:53;;;;;;;5.60;2.15;;;10.50;99.90;;;10.31;100.00;100735.41;5184110;28;20048;-58
2022/12/25 08:22:25;;;;;;;8.93;3.53;;;10.50;99.90;;;10.30;100.00;100746.66;5184075;28;20076;-57
2022/12/25 08:24:57;;;;;;;7.28;4.53;;;10.50;99.90;;;10.30;100.00;100750.94;5183998;28;20045;-59
2022/12/25 08:27:29;;;;;;;5.38;2.92;;;10.40;99.90;;;10.30;100.00;100753.56;5194431;28;20053;-61
2022/12/25 08:30:02;;;;;;;7.22;3.38;;;10.50;99.90;;;10.29;100.00;100754.41;5204119;28;20049;-61
2022/12/25 08:32:35;;;;;;;6.70;3.00;;;10.50;99.90;;;10.30;100.00;100756.16;5186478;28;20056;-58
2022/12/25 08:35:08;;;;;;;4.95;3.00;;;10.50;99.90;;;10.31;100.00;100748.41;5203796;28;20096;-59
2022/12/25 08:37:40;;;;;;;6.85;2.70;;;10.40;99.90;;;10.65;100.00;100741.75;5197836;28;20403;-59
2022/12/25 08:40:13;;;;;;;7.28;3.20;;;10.90;99.90;;;11.31;100.00;100717.78;5204132;28;20406;-59
2022/12/25 08:42:45;;;;;;;9.18;2.83;;;11.50;99.90;;;11.82;100.00;100712.38;5203863;28;20049;-58
2022/12/25 08:45:19;;;;;;;5.57;2.17;;;12.10;99.90;;;11.89;100.00;100719.53;5203946;28;20049;-58
2022/12/25 08:47:54;;;;;;;4.65;2.15;;;12.30;99.90;;;11.74;100.00;100721.69;5203446;28;20506;-58
2022/12/25 08:50:26;;;;;;;6.53;2.55;;;12.10;99.90;;;11.46;100.00;100723.44;5203867;28;20051;-59
2022/12/25 08:52:58;;;;;;;5.05;2.08;;;11.80;99.90;;;11.23;100.00;100722.78;5203742;28;20045;-60
2022/12/25 08:55:30;;;;;;;3.80;2.28;;;11.50;99.90;;;11.06;100.00;100729.16;5186131;28;20056;-57
2022/12/25 08:58:02;;;;;;;7.10;1.77;;;11.30;99.90;;;10.96;100.00;100738.44;5203553;28;20045;-57
2022/12/25 09:00:36;;;;;;;5.97;2.22;;;11.20;99.90;;;10.87;100.00;100731.19;5203927;28;20072;-56
2022/12/25 09:03:08;;;;;;;6.22;2.17;;;11.10;99.90;;;10.80;100.00;100728.34;5203309;28;20044;-57
2022/12/25 09:05:40;;;;;;;6.18;2.03;;;11.00;99.90;;;10.75;100.00;100730.78;5203868;28;20544;-56
2022/12/25 09:08:12;;;;;;;7.75;2.72;;;11.00;99.90;;;10.70;100.00;100721.06;5203986;28;20049;-58
2022/12/25 09:10:45;;;;;;;7.22;2.05;;;10.90;99.90;;;10.69;100.00;100727.09;5203469;28;20096;-59
2022/12/25 09:13:17;;;;;;;5.07;2.15;;;10.90;99.90;;;10.68;100.00;100725.31;5198017;28;20053;-58
2022/12/25 09:15:50;;;;;;;5.13;2.17;;;10.80;99.90;;;10.67;100.00;100732.25;5195854;28;20091;-59
2022/12/25 09:18:22;;;;;;;6.00;2.50;;;10.80;99.90;;;10.66;100.00;100713.97;5203055;28;20045;-59
2022/12/25 09:20:59;;;;;;;5.35;1.95;;;10.80;99.90;;;10.62;100.00;100693.81;5203713;28;20052;-59
2022/12/25 09:23:32;;;;;;;5.25;2.10;;;10.80;99.90;;;10.96;100.00;100681.06;5203153;28;20053;-59
2022/12/25 09:26:07;;;;;;;9.30;2.40;;;11.10;99.90;;;11.27;100.00;100688.09;5207000;28;20041;-59
2022/12/25 09:28:40;;;;;;;5.57;2.15;;;11.40;99.90;;;11.24;100.00;100708.88;5207140;28;20052;-57
2022/12/25 09:31:13;;;;;;;5.57;2.33;;;11.40;99.90;;;11.14;100.00;100697.25;5205574;28;20049;-59
2022/12/25 09:33:45;;;;;;;5.18;1.90;;;11.30;99.90;;;11.02;100.00;100707.34;5186601;28;20045;-59
2022/12/25 09:36:20;;;;;;;6.45;2.40;;;11.20;99.90;;;10.94;100.00;100720.94;5187044;28;20411;-58
2022/12/25 09:38:52;;;;;;;5.88;2.50;;;11.10;99.90;;;10.85;100.00;100724.16;5186531;28;20062;-57
2022/12/25 09:41:32;;;;;;;5.53;1.90;;;11.00;99.90;;;10.76;100.00;100708.22;5187512;28;20414;-58
2022/12/25 09:44:08;;;;;;;4.25;2.17;;;10.90;99.90;;;10.69;100.00;100704.50;5169747;28;20065;-59
2022/12/25 09:46:45;;;;;;;4.25;1.90;;;10.80;99.90;;;10.76;100.00;100731.69;5190866;28;20045;-58
2022/12/25 09:49:31;;;;;;;6.68;3.15;;;10.90;99.90;;;10.75;100.00;100735.09;5189828;28;20046;-59
2022/12/25 09:52:09;;;;;;;5.93;2.47;;;10.90;99.90;;;10.73;100.00;100734.19;5196296;28;20042;-57
2022/12/25 09:54:53;;;;;;;7.75;2.47;;;10.90;99.90;;;10.66;100.00;100734.81;5207445;28;20044;-58
2022/12/25 09:57:26;;;;;;;6.20;2.25;;;10.80;99.90;;;10.60;100.00;100741.59;5207093;28;20042;-59
2022/12/25 09:59:58;;;;;;;4.65;2.28;;;10.80;99.90;;;10.59;100.00;100744.16;5207643;28;20410;-57
2022/12/25 10:03:20;;;;;;;6.88;1.77;;;10.70;99.90;;;10.59;100.00;100760.69;5207329;28;20119;-57
2022/12/25 10:06:06;;;;;;;6.63;2.30;;;10.70;99.90;;;10.62;100.00;100753.78;5088086;29;20051;-57
2022/12/25 10:09:08;;;;;;;5.25;2.88;;;10.70;99.90;;;10.62;100.00;100759.00;5198527;28;20512;-59
2022/12/25 10:12:05;;;;;;;3.80;2.00;;;10.80;99.90;;;10.63;100.00;100750.34;5207263;28;20557;-59
2022/12/25 10:14:54;;;;;;;5.65;2.30;;;10.70;99.90;;;10.63;100.00;100760.75;5206673;28;20042;-58
2022/12/25 10:17:41;;;;;;;4.50;1.90;;;10.70;99.90;;;10.60;100.00;100749.41;5206579;28;20050;-60
2022/12/25 10:20:21;;;;;;;6.40;2.55;;;10.70;99.90;;;10.59;100.00;100752.84;5206844;28;20049;-59
2022/12/25 10:22:58;;;;;;;5.47;2.50;;;10.70;99.90;;;10.59;100.00;100739.81;5198521;28;20034;-59
2022/12/25 10:25:31;;;;;;;9.32;3.42;;;10.70;99.90;;;10.59;100.00;100741.53;5194231;28;20068;-61
2022/12/25 10:28:13;;;;;;;5.22;3.00;;;10.70;99.90;;;10.62;100.00;100741.63;5196503;28;20045;-58
2022/12/25 10:30:45;;;;;;;5.38;2.95;;;10.70;99.90;;;10.64;100.00;100736.50;5196822;28;20041;-60
2022/12/25 10:33:20;;;;;;;3.88;2.50;;;10.70;99.90;;;10.66;100.00;100734.81;5195884;28;20639;-60
2022/12/25 10:35:52;;;;;;;;;;;10.70;99.90;;;10.66;100.00;100729.59;5197037;28;20037;-59
2022/12/25 10:38:24;;;;;;;5.85;2.83;;;10.70;99.90;;;10.67;100.00;100720.94;5194692;28;19948;-60
2022/12/25 10:41:13;;;;;;;8.57;3.60;;;10.70;99.90;;;10.65;100.00;100691.34;5178447;28;20582;-59
2022/12/25 10:43:49;;;;;;;7.45;3.65;;;10.70;99.90;;;10.64;100.00;100694.78;5197048;28;20524;-59
2022/12/25 10:46:27;;;;;;;7.20;3.17;;;10.70;99.90;;;10.60;100.00;100679.03;5196800;28;20046;-59
2022/12/25 10:49:06;;;;;;;8.18;3.47;;;10.70;99.90;;;10.62;100.00;100686.00;5194518;28;20069;-61
2022/12/25 10:51:39;;;;;;;8.18;3.42;;;10.70;99.90;;;10.61;100.00;100679.91;5196358;28;20048;-60
2022/12/25 10:54:23;;;;;;;11.02;4.55;;;10.70;99.90;;;10.60;100.00;100665.13;5195356;28;20440;-59
2022/12/25 10:56:58;;;;;;;10.23;4.60;;;10.70;99.90;;;10.56;100.00;100669.38;5195566;28;20430;-58
2022/12/25 10:59:35;;;;;;;7.07;4.00;;;10.70;99.90;;;10.58;100.00;100678.09;5194516;28;20127;-61
2022/12/25 11:02:16;;;;;;;7.45;3.95;;;10.70;99.90;;;10.60;100.00;100683.34;5195030;28;20038;-59
2022/12/25 11:04:51;;;;;;;6.32;2.95;;;10.70;99.90;;;10.64;100.00;100700.00;5194780;28;20038;-61
2022/12/25 11:07:26;;;;;;;5.13;3.28;;;10.70;99.90;;;10.66;100.00;100687.91;5194595;28;20132;-60
2022/12/25 11:10:03;;;;;;;7.75;4.30;;;10.70;99.90;;;10.64;100.00;100679.16;5195310;28;20409;-60
2022/12/25 11:12:42;;;;;;;10.80;5.18;;;10.70;99.90;;;10.63;100.00;100661.72;5195568;28;20046;-59
2022/12/25 11:15:35;;;;;;;9.15;3.95;;;10.70;99.90;;;10.62;100.00;100633.88;5195023;28;20041;-59
2022/12/25 11:18:20;;;;;;;7.63;2.58;;;10.70;99.90;;;10.83;100.00;100632.84;5543122;22;20041;-60
2022/12/25 11:20:57;;;;;;;17.52;9.45;;;11.00;99.90;;;11.19;100.00;100615.66;5225832;28;20056;-58
2022/12/25 11:23:32;;;;;;;12.60;6.15;;;11.30;99.90;;;11.11;100.00;100590.22;5226327;28;20107;-59
2022/12/25 11:26:06;;;;;;;14.25;7.05;;;11.30;99.90;;;11.06;100.00;100583.09;5218135;28;20045;-57
2022/12/25 11:28:41;;;;;;;11.80;5.80;;;11.30;99.90;;;10.98;100.00;100572.44;5204825;28;20144;-57
2022/12/25 11:31:18;;;;;;;10.00;4.38;;;11.20;99.90;;;10.93;100.00;100578.34;5202527;28;20418;-60
2022/12/25 11:33:55;;;;;;;6.85;2.72;;;11.10;99.90;;;10.94;100.00;100581.00;5205343;28;20045;-58
2022/12/25 11:36:42;;;;;;;8.30;3.85;;;11.10;99.90;;;10.90;100.00;100562.63;5205470;28;20450;-58
2022/12/25 11:39:23;;;;;;;8.60;4.85;;;11.10;99.90;;;10.89;100.00;100556.53;5202208;28;20045;-57
2022/12/25 11:42:00;;;;;;;7.30;3.60;;;11.00;99.90;;;10.93;100.00;100550.56;5184771;28;20048;-57
2022/12/25 11:44:44;;;;;;;7.20;3.45;;;11.00;99.90;;;10.92;100.00;100535.75;5184292;28;20095;-57
2022/12/25 11:47:22;;;;;;;6.53;3.65;;;11.10;99.90;;;10.94;100.00;100534.06;5202212;28;20048;-58
2022/12/25 11:50:00;;;;;;;7.80;3.20;;;11.00;99.90;;;10.97;100.00;100528.94;5202643;28;20041;-57
2022/12/25 11:52:37;;;;;;;6.68;3.20;;;11.10;99.90;;;11.00;100.00;100517.72;5204959;28;20143;-60
2022/12/25 11:55:20;;;;;;;5.65;2.97;;;11.10;99.90;;;11.06;100.00;100520.50;5204940;28;20485;-60
2022/12/25 11:57:59;;;;;;;7.88;2.97;;;11.10;99.90;;;11.07;100.00;100517.91;5204132;28;20063;-58
2022/12/25 12:00:33;;;;;;;7.97;2.97;;;11.10;99.90;;;11.10;100.00;100514.53;5204956;28;20061;-57
2022/12/25 12:03:15;;;;;;;6.63;3.22;;;11.20;99.90;;;11.08;100.00;100504.06;5204658;28;20128;-58
2022/12/25 12:05:53;;;;;;;8.02;3.83;;;11.10;99.90;;;11.09;100.00;100504.94;5204610;28;20144;-58
2022/12/25 12:08:27;;;;;;;6.53;3.22;;;11.10;99.90;;;11.10;100.00;100499.75;5204170;28;20498;-57
2022/12/25 12:11:17;;;;;;;5.43;3.15;;;11.20;99.90;;;11.12;100.00;100498.06;5204849;28;20402;-57
2022/12/25 12:14:16;;;;;;;6.93;3.03;;;11.20;99.90;;;11.14;100.00;100493.78;5202325;28;20128;-57
2022/12/25 12:16:49;;;;;;;6.10;3.45;;;11.20;99.90;;;11.17;100.00;100492.13;5201262;28;20052;-58
2022/12/25 12:19:28;;;;;;;6.07;2.53;;;11.20;99.90;;;11.19;100.00;100495.63;5200542;28;20045;-57
2022/12/25 12:22:03;;;;;;;6.65;3.08;;;11.20;99.90;;;11.20;100.00;100497.41;5183345;28;20060;-59
2022/12/25 12:24:41;;;;;;;5.85;2.75;;;11.30;99.90;;;11.22;100.00;100493.13;5202027;28;20049;-58